sensor_id;sensor_type;location;lat;lon;timestamp;pressure;altitude;pressure_sealevel;temperature;humidity
78894;BME280;68282;42.698;23.350;2024-01-27T00:01:22;95938.56;;;5.00;50.51
78894;BME280;68282;42.698;23.350;2024-01-27T00:03:47;95939.44;;;5.22;50.25
78894;BME280;68282;42.698;23.350;2024-01-27T00:06:13;95936.00;;;5.28;50.75
78894;BME280;68282;42.698;23.350;2024-01-27T00:08:38;95945.94;;;5.28;50.09
78894;BME280;68282;42.698;23.350;2024-01-27T00:11:04;95943.56;;;5.03;51.05
78894;BME280;68282;42.698;23.350;2024-01-27T00:13:30;95967.59;;;5.34;49.87
78894;BME280;68282;42.698;23.350;2024-01-27T00:15:55;95945.94;;;5.28;50.49
78894;BME280;68282;42.698;23.350;2024-01-27T00:18:21;95932.41;;;5.42;49.87
78894;BME280;68282;42.698;23.350;2024-01-27T00:20:46;95929.63;;;5.51;49.67
78894;BME280;68282;42.698;23.350;2024-01-27T00:23:12;95942.63;;;5.10;51.06
78894;BME280;68282;42.698;23.350;2024-01-27T00:25:37;95940.03;;;5.17;50.30
78894;BME280;68282;42.698;23.350;2024-01-27T00:28:03;95946.97;;;4.75;51.34
78894;BME280;68282;42.698;23.350;2024-01-27T00:30:29;95954.03;;;4.61;51.86
78894;BME280;68282;42.698;23.350;2024-01-27T00:32:54;95940.91;;;4.88;51.90
78894;BME280;68282;42.698;23.350;2024-01-27T00:35:20;95940.34;;;4.92;51.36
78894;BME280;68282;42.698;23.350;2024-01-27T00:37:46;95926.75;;;5.16;51.24
78894;BME280;68282;42.698;23.350;2024-01-27T00:40:12;95933.00;;;5.38;50.36
78894;BME280;68282;42.698;23.350;2024-01-27T00:42:38;95940.41;;;5.51;49.92
78894;BME280;68282;42.698;23.350;2024-01-27T00:45:04;95938.97;;;5.55;50.25
78894;BME280;68282;42.698;23.350;2024-01-27T00:47:32;95921.31;;;5.52;50.18
78894;BME280;68282;42.698;23.350;2024-01-27T00:49:57;95928.53;;;5.67;49.91
78894;BME280;68282;42.698;23.350;2024-01-27T00:52:23;95936.50;;;5.75;50.16
78894;BME280;68282;42.698;23.350;2024-01-27T00:54:48;95915.13;;;5.58;49.82
78894;BME280;68282;42.698;23.350;2024-01-27T00:57:14;95931.84;;;5.69;50.28
78894;BME280;68282;42.698;23.350;2024-01-27T00:59:40;95927.53;;;5.53;50.25
78894;BME280;68282;42.698;23.350;2024-01-27T01:02:06;95918.41;;;5.54;49.77
78894;BME280;68282;42.698;23.350;2024-01-27T01:04:32;95930.63;;;5.50;50.63
78894;BME280;68282;42.698;23.350;2024-01-27T01:06:57;95929.63;;;5.36;50.74
78894;BME280;68282;42.698;23.350;2024-01-27T01:09:23;95926.50;;;5.54;50.59
78894;BME280;68282;42.698;23.350;2024-01-27T01:11:48;95928.38;;;5.32;51.24
78894;BME280;68282;42.698;23.350;2024-01-27T01:14:15;95934.44;;;5.19;51.82
78894;BME280;68282;42.698;23.350;2024-01-27T01:16:41;95938.97;;;5.33;51.47
78894;BME280;68282;42.698;23.350;2024-01-27T01:19:06;95936.53;;;5.38;51.41
78894;BME280;68282;42.698;23.350;2024-01-27T01:21:32;95938.97;;;5.33;51.45
78894;BME280;68282;42.698;23.350;2024-01-27T01:23:58;95929.84;;;4.53;53.78
78894;BME280;68282;42.698;23.350;2024-01-27T01:26:26;95926.06;;;4.62;53.91
78894;BME280;68282;42.698;23.350;2024-01-27T01:28:52;95937.50;;;4.79;53.72
78894;BME280;68282;42.698;23.350;2024-01-27T01:31:17;95932.66;;;4.59;54.23
78894;BME280;68282;42.698;23.350;2024-01-27T01:33:43;95924.84;;;4.35;55.45
78894;BME280;68282;42.698;23.350;2024-01-27T01:36:09;95926.63;;;4.57;54.23
78894;BME280;68282;42.698;23.350;2024-01-27T01:38:35;95932.00;;;4.42;54.96
78894;BME280;68282;42.698;23.350;2024-01-27T01:41:00;95932.09;;;4.34;55.03
78894;BME280;68282;42.698;23.350;2024-01-27T01:43:26;95934.63;;;4.51;54.45
78894;BME280;68282;42.698;23.350;2024-01-27T01:45:52;95926.25;;;4.45;55.08
78894;BME280;68282;42.698;23.350;2024-01-27T01:48:20;95921.78;;;4.38;55.09
78894;BME280;68282;42.698;23.350;2024-01-27T01:50:46;95919.94;;;4.38;55.18
78894;BME280;68282;42.698;23.350;2024-01-27T01:53:12;95912.41;;;4.33;55.04
78894;BME280;68282;42.698;23.350;2024-01-27T01:55:38;95914.16;;;4.71;54.55
78894;BME280;68282;42.698;23.350;2024-01-27T01:58:05;95909.50;;;4.80;53.42
78894;BME280;68282;42.698;23.350;2024-01-27T02:00:31;95915.25;;;4.92;53.23
78894;BME280;68282;42.698;23.350;2024-01-27T02:02:56;95902.63;;;5.14;52.51
78894;BME280;68282;42.698;23.350;2024-01-27T02:05:22;95895.53;;;5.06;53.08
78894;BME280;68282;42.698;23.350;2024-01-27T02:07:47;95895.06;;;5.39;52.34
78894;BME280;68282;42.698;23.350;2024-01-27T02:10:14;95892.34;;;5.61;51.75
78894;BME280;68282;42.698;23.350;2024-01-27T02:12:44;95863.13;;;5.43;51.34
78894;BME280;68282;42.698;23.350;2024-01-27T02:15:11;95865.81;;;5.43;51.37
78894;BME280;68282;42.698;23.350;2024-01-27T02:17:39;95869.03;;;5.53;51.29
78894;BME280;68282;42.698;23.350;2024-01-27T02:20:06;95864.59;;;5.46;51.20
78894;BME280;68282;42.698;23.350;2024-01-27T02:22:33;95877.84;;;5.62;50.81
78894;BME280;68282;42.698;23.350;2024-01-27T02:24:59;95889.38;;;5.56;50.54
78894;BME280;68282;42.698;23.350;2024-01-27T02:27:24;95889.69;;;5.68;50.40
78894;BME280;68282;42.698;23.350;2024-01-27T02:29:50;95876.03;;;5.48;50.68
78894;BME280;68282;42.698;23.350;2024-01-27T02:32:15;95867.03;;;5.62;50.49
78894;BME280;68282;42.698;23.350;2024-01-27T02:34:41;95882.81;;;5.65;50.26
78894;BME280;68282;42.698;23.350;2024-01-27T02:37:06;95873.69;;;5.66;50.16
78894;BME280;68282;42.698;23.350;2024-01-27T02:39:33;95870.13;;;5.59;50.02
78894;BME280;68282;42.698;23.350;2024-01-27T02:41:59;95878.78;;;5.54;49.92
78894;BME280;68282;42.698;23.350;2024-01-27T02:44:24;95882.75;;;5.58;50.14
78894;BME280;68282;42.698;23.350;2024-01-27T02:46:50;95865.03;;;5.71;49.96
78894;BME280;68282;42.698;23.350;2024-01-27T02:49:16;95871.50;;;5.77;49.75
78894;BME280;68282;42.698;23.350;2024-01-27T02:51:41;95869.19;;;5.52;50.19
78894;BME280;68282;42.698;23.350;2024-01-27T02:54:07;95868.88;;;5.62;49.83
78894;BME280;68282;42.698;23.350;2024-01-27T02:56:32;95865.88;;;5.50;50.53
78894;BME280;68282;42.698;23.350;2024-01-27T02:58:58;95880.00;;;5.52;50.55
78894;BME280;68282;42.698;23.350;2024-01-27T03:01:23;95868.19;;;5.53;49.94
78894;BME280;68282;42.698;23.350;2024-01-27T03:03:49;95875.16;;;5.69;49.67
78894;BME280;68282;42.698;23.350;2024-01-27T03:06:15;95877.25;;;5.67;49.63
78894;BME280;68282;42.698;23.350;2024-01-27T03:08:40;95879.69;;;5.40;50.08
78894;BME280;68282;42.698;23.350;2024-01-27T03:11:06;95885.00;;;5.55;50.08
78894;BME280;68282;42.698;23.350;2024-01-27T03:13:32;95881.22;;;5.71;49.38
78894;BME280;68282;42.698;23.350;2024-01-27T03:15:57;95887.97;;;5.60;49.85
78894;BME280;68282;42.698;23.350;2024-01-27T03:18:23;95882.53;;;5.53;49.86
78894;BME280;68282;42.698;23.350;2024-01-27T03:20:49;95890.78;;;5.73;49.61
78894;BME280;68282;42.698;23.350;2024-01-27T03:23:15;95870.84;;;5.75;49.24
78894;BME280;68282;42.698;23.350;2024-01-27T03:25:41;95886.88;;;5.76;49.00
78894;BME280;68282;42.698;23.350;2024-01-27T03:28:06;95885.59;;;5.29;50.24
78894;BME280;68282;42.698;23.350;2024-01-27T03:30:32;95878.84;;;5.18;51.03
78894;BME280;68282;42.698;23.350;2024-01-27T03:32:57;95875.09;;;5.19;51.13
78894;BME280;68282;42.698;23.350;2024-01-27T03:35:23;95876.03;;;4.89;53.73
78894;BME280;68282;42.698;23.350;2024-01-27T03:37:49;95872.41;;;5.19;53.35
78894;BME280;68282;42.698;23.350;2024-01-27T03:40:14;95875.09;;;5.19;54.10
78894;BME280;68282;42.698;23.350;2024-01-27T03:42:40;95877.81;;;4.82;56.00
78894;BME280;68282;42.698;23.350;2024-01-27T03:45:06;95872.97;;;4.77;56.79
78894;BME280;68282;42.698;23.350;2024-01-27T03:47:31;95874.13;;;5.05;56.01
78894;BME280;68282;42.698;23.350;2024-01-27T03:49:57;95867.97;;;4.89;57.18
78894;BME280;68282;42.698;23.350;2024-01-27T03:52:22;95865.06;;;4.91;57.32
78894;BME280;68282;42.698;23.350;2024-01-27T03:54:48;95853.19;;;4.85;57.58
78894;BME280;68282;42.698;23.350;2024-01-27T03:57:13;95848.53;;;4.94;58.24
78894;BME280;68282;42.698;23.350;2024-01-27T03:59:42;95881.06;;;5.14;58.01
78894;BME280;68282;42.698;23.350;2024-01-27T04:02:07;95855.41;;;4.82;59.19
78894;BME280;68282;42.698;23.350;2024-01-27T04:04:33;95862.38;;;4.91;59.07
78894;BME280;68282;42.698;23.350;2024-01-27T04:06:58;95867.97;;;4.74;59.59
78894;BME280;68282;42.698;23.350;2024-01-27T04:09:24;95873.34;;;4.74;60.51
78894;BME280;68282;42.698;23.350;2024-01-27T04:11:49;95873.34;;;4.89;59.81
78894;BME280;68282;42.698;23.350;2024-01-27T04:14:16;95868.56;;;5.06;60.08
78894;BME280;68282;42.698;23.350;2024-01-27T04:16:41;95859.66;;;5.28;59.17
78894;BME280;68282;42.698;23.350;2024-01-27T04:19:07;95848.84;;;5.28;59.78
78894;BME280;68282;42.698;23.350;2024-01-27T04:21:32;95847.63;;;5.30;59.50
78894;BME280;68282;42.698;23.350;2024-01-27T04:23:58;95853.88;;;5.52;59.65
78894;BME280;68282;42.698;23.350;2024-01-27T04:26:23;95852.13;;;5.23;60.20
78894;BME280;68282;42.698;23.350;2024-01-27T04:28:49;95846.28;;;5.41;59.32
78894;BME280;68282;42.698;23.350;2024-01-27T04:31:14;95858.09;;;5.62;58.76
78894;BME280;68282;42.698;23.350;2024-01-27T04:33:40;95855.34;;;5.55;58.83
78894;BME280;68282;42.698;23.350;2024-01-27T04:36:06;95855.72;;;5.52;58.93
78894;BME280;68282;42.698;23.350;2024-01-27T04:38:35;95858.94;;;5.62;59.13
78894;BME280;68282;42.698;23.350;2024-01-27T04:41:01;95861.38;;;5.57;59.15
78894;BME280;68282;42.698;23.350;2024-01-27T04:43:26;95860.94;;;5.53;59.46
78894;BME280;68282;42.698;23.350;2024-01-27T04:45:54;95853.47;;;5.77;59.04
78894;BME280;68282;42.698;23.350;2024-01-27T04:48:19;95838.97;;;5.85;58.11
78894;BME280;68282;42.698;23.350;2024-01-27T04:50:45;95858.56;;;5.94;58.78
78894;BME280;68282;42.698;23.350;2024-01-27T04:53:12;95860.88;;;5.97;58.63
78894;BME280;68282;42.698;23.350;2024-01-27T04:55:37;95864.41;;;5.97;58.56
78894;BME280;68282;42.698;23.350;2024-01-27T04:58:03;95866.47;;;6.17;58.36
78894;BME280;68282;42.698;23.350;2024-01-27T05:00:29;95864.56;;;6.17;58.28
78894;BME280;68282;42.698;23.350;2024-01-27T05:02:55;95870.25;;;6.23;58.37
78894;BME280;68282;42.698;23.350;2024-01-27T05:05:20;95876.03;;;5.98;59.29
78894;BME280;68282;42.698;23.350;2024-01-27T05:07:46;95867.97;;;5.76;59.46
78894;BME280;68282;42.698;23.350;2024-01-27T05:10:15;95870.75;;;5.61;60.59
78894;BME280;68282;42.698;23.350;2024-01-27T05:12:40;95870.78;;;5.39;60.91
78894;BME280;68282;42.698;23.350;2024-01-27T05:15:06;95871.53;;;5.55;61.29
78894;BME280;68282;42.698;23.350;2024-01-27T05:17:32;95867.13;;;5.76;60.46
78894;BME280;68282;42.698;23.350;2024-01-27T05:19:58;95878.97;;;5.75;61.00
78894;BME280;68282;42.698;23.350;2024-01-27T05:22:23;95868.25;;;5.38;61.72
78894;BME280;68282;42.698;23.350;2024-01-27T05:24:49;95887.56;;;5.41;62.08
78894;BME280;68282;42.698;23.350;2024-01-27T05:27:15;95882.69;;;5.30;62.82
78894;BME280;68282;42.698;23.350;2024-01-27T05:29:40;95887.06;;;5.53;62.41
78894;BME280;68282;42.698;23.350;2024-01-27T05:32:06;95879.19;;;5.51;62.27
78894;BME280;68282;42.698;23.350;2024-01-27T05:34:32;95879.09;;;5.66;62.30
78894;BME280;68282;42.698;23.350;2024-01-27T05:36:57;95870.69;;;5.54;62.64
78894;BME280;68282;42.698;23.350;2024-01-27T05:39:23;95885.28;;;5.38;63.24
78894;BME280;68282;42.698;23.350;2024-01-27T05:41:48;95886.88;;;5.11;63.98
78894;BME280;68282;42.698;23.350;2024-01-27T05:44:14;95889.84;;;5.01;64.64
78894;BME280;68282;42.698;23.350;2024-01-27T05:46:39;95888.34;;;5.14;64.49
78894;BME280;68282;42.698;23.350;2024-01-27T05:49:05;95892.25;;;5.11;65.04
78894;BME280;68282;42.698;23.350;2024-01-27T05:51:30;95899.16;;;5.35;64.77
78894;BME280;68282;42.698;23.350;2024-01-27T05:53:56;95882.56;;;5.17;65.35
78894;BME280;68282;42.698;23.350;2024-01-27T05:56:22;95893.88;;;5.27;65.05
78894;BME280;68282;42.698;23.350;2024-01-27T05:58:47;95919.84;;;5.13;65.41
78894;BME280;68282;42.698;23.350;2024-01-27T06:01:13;95901.22;;;4.97;65.65
78894;BME280;68282;42.698;23.350;2024-01-27T06:03:41;95915.03;;;5.08;65.44
78894;BME280;68282;42.698;23.350;2024-01-27T06:06:07;95891.69;;;5.16;65.25
78894;BME280;68282;42.698;23.350;2024-01-27T06:08:33;95910.84;;;5.42;64.73
78894;BME280;68282;42.698;23.350;2024-01-27T06:10:58;95914.44;;;5.13;65.37
78894;BME280;68282;42.698;23.350;2024-01-27T06:13:24;95915.34;;;4.99;65.79
78894;BME280;68282;42.698;23.350;2024-01-27T06:15:50;95929.31;;;4.87;66.49
78894;BME280;68282;42.698;23.350;2024-01-27T06:18:16;95924.75;;;4.58;67.07
78894;BME280;68282;42.698;23.350;2024-01-27T06:20:41;95938.78;;;4.68;67.45
78894;BME280;68282;42.698;23.350;2024-01-27T06:23:07;95918.72;;;4.56;67.11
78894;BME280;68282;42.698;23.350;2024-01-27T06:25:34;95932.19;;;4.56;68.18
78894;BME280;68282;42.698;23.350;2024-01-27T06:27:59;95931.91;;;4.51;67.13
78894;BME280;68282;42.698;23.350;2024-01-27T06:30:25;95949.91;;;4.35;68.05
78894;BME280;68282;42.698;23.350;2024-01-27T06:32:50;95960.22;;;4.16;69.04
78894;BME280;68282;42.698;23.350;2024-01-27T06:35:16;95956.59;;;4.24;68.22
78894;BME280;68282;42.698;23.350;2024-01-27T06:37:42;95961.78;;;4.26;69.04
78894;BME280;68282;42.698;23.350;2024-01-27T06:40:08;95959.91;;;4.26;69.27
78894;BME280;68282;42.698;23.350;2024-01-27T06:42:36;95945.56;;;4.34;68.88
78894;BME280;68282;42.698;23.350;2024-01-27T06:45:02;95963.38;;;4.35;68.93
78894;BME280;68282;42.698;23.350;2024-01-27T06:47:29;95962.94;;;4.46;69.38
78894;BME280;68282;42.698;23.350;2024-01-27T06:49:54;95953.47;;;4.66;68.25
78894;BME280;68282;42.698;23.350;2024-01-27T06:52:20;95975.63;;;4.38;69.55
78894;BME280;68282;42.698;23.350;2024-01-27T06:54:45;95977.81;;;4.57;69.54
78894;BME280;68282;42.698;23.350;2024-01-27T06:57:21;95963.50;;;4.42;69.87
78894;BME280;68282;42.698;23.350;2024-01-27T06:59:51;95961.81;;;4.41;70.78
78894;BME280;68282;42.698;23.350;2024-01-27T07:02:28;95956.78;;;4.53;69.66
78894;BME280;68282;42.698;23.350;2024-01-27T07:04:54;95959.88;;;4.49;69.51
78894;BME280;68282;42.698;23.350;2024-01-27T07:07:25;95956.25;;;4.72;69.08
78894;BME280;68282;42.698;23.350;2024-01-27T07:09:51;95951.50;;;4.74;69.28
78894;BME280;68282;42.698;23.350;2024-01-27T07:12:17;95930.88;;;4.82;68.86
78894;BME280;68282;42.698;23.350;2024-01-27T07:14:42;95943.44;;;4.89;67.72
78894;BME280;68282;42.698;23.350;2024-01-27T07:17:08;95944.06;;;4.76;68.00
78894;BME280;68282;42.698;23.350;2024-01-27T07:19:33;95943.72;;;4.49;68.12
78894;BME280;68282;42.698;23.350;2024-01-27T07:21:59;95954.47;;;4.79;67.36
78894;BME280;68282;42.698;23.350;2024-01-27T07:24:29;95951.69;;;4.88;67.15
78894;BME280;68282;42.698;23.350;2024-01-27T07:26:54;95961.72;;;5.09;66.44
78894;BME280;68282;42.698;23.350;2024-01-27T07:29:20;95976.78;;;5.03;65.73
78894;BME280;68282;42.698;23.350;2024-01-27T07:31:46;95980.13;;;4.75;66.90
78894;BME280;68282;42.698;23.350;2024-01-27T07:34:11;95990.19;;;4.67;66.85
78894;BME280;68282;42.698;23.350;2024-01-27T07:36:37;96009.75;;;4.75;66.54
78894;BME280;68282;42.698;23.350;2024-01-27T07:39:02;96020.38;;;4.77;66.83
78894;BME280;68282;42.698;23.350;2024-01-27T07:41:30;96012.09;;;4.78;66.48
78894;BME280;68282;42.698;23.350;2024-01-27T07:43:56;96046.13;;;4.79;65.60
78894;BME280;68282;42.698;23.350;2024-01-27T07:46:22;96053.72;;;4.61;65.47
78894;BME280;68282;42.698;23.350;2024-01-27T07:48:51;96065.16;;;4.63;65.08
78894;BME280;68282;42.698;23.350;2024-01-27T07:51:16;96049.16;;;4.61;65.68
78894;BME280;68282;42.698;23.350;2024-01-27T07:53:42;96057.34;;;4.83;64.93
78894;BME280;68282;42.698;23.350;2024-01-27T07:56:07;96067.88;;;4.78;63.74
78894;BME280;68282;42.698;23.350;2024-01-27T07:58:33;96047.88;;;4.72;63.97
78894;BME280;68282;42.698;23.350;2024-01-27T08:00:59;96073.81;;;4.73;64.92
78894;BME280;68282;42.698;23.350;2024-01-27T08:03:25;96084.06;;;4.55;64.06
78894;BME280;68282;42.698;23.350;2024-01-27T08:05:51;96081.31;;;4.63;64.37
78894;BME280;68282;42.698;23.350;2024-01-27T08:08:16;96068.47;;;4.65;63.22
78894;BME280;68282;42.698;23.350;2024-01-27T08:10:41;96054.44;;;4.55;63.61
78894;BME280;68282;42.698;23.350;2024-01-27T08:13:07;96077.31;;;4.59;63.69
78894;BME280;68282;42.698;23.350;2024-01-27T08:15:33;96059.91;;;4.46;63.99
78894;BME280;68282;42.698;23.350;2024-01-27T08:17:58;96068.47;;;4.65;63.46
78894;BME280;68282;42.698;23.350;2024-01-27T08:20:24;96057.78;;;4.57;63.91
78894;BME280;68282;42.698;23.350;2024-01-27T08:22:51;96060.91;;;4.45;64.68
78894;BME280;68282;42.698;23.350;2024-01-27T08:25:17;96064.53;;;4.53;64.68
78894;BME280;68282;42.698;23.350;2024-01-27T08:27:43;96066.66;;;4.42;64.12
78894;BME280;68282;42.698;23.350;2024-01-27T08:30:10;96066.66;;;4.42;64.47
78894;BME280;68282;42.698;23.350;2024-01-27T08:32:36;96050.38;;;4.36;64.23
78894;BME280;68282;42.698;23.350;2024-01-27T08:35:02;96064.19;;;4.56;64.18
78894;BME280;68282;42.698;23.350;2024-01-27T08:37:29;96080.38;;;4.71;64.05
78894;BME280;68282;42.698;23.350;2024-01-27T08:39:56;96073.63;;;4.90;63.24
78894;BME280;68282;42.698;23.350;2024-01-27T08:42:22;96039.50;;;4.82;63.02
78894;BME280;68282;42.698;23.350;2024-01-27T08:44:48;96026.69;;;4.84;62.88
78894;BME280;68282;42.698;23.350;2024-01-27T08:47:14;96033.19;;;5.05;62.32
78894;BME280;68282;42.698;23.350;2024-01-27T08:49:40;96036.63;;;5.29;61.78
78894;BME280;68282;42.698;23.350;2024-01-27T08:52:06;96003.25;;;5.30;61.38
78894;BME280;68282;42.698;23.350;2024-01-27T08:54:32;96006.06;;;5.21;60.95
78894;BME280;68282;42.698;23.350;2024-01-27T08:56:57;96019.94;;;5.55;61.03
78894;BME280;68282;42.698;23.350;2024-01-27T08:59:23;96018.56;;;5.44;60.36
78894;BME280;68282;42.698;23.350;2024-01-27T09:01:48;96019.41;;;5.45;60.37
78894;BME280;68282;42.698;23.350;2024-01-27T09:04:14;96002.56;;;5.42;60.30
78894;BME280;68282;42.698;23.350;2024-01-27T09:06:39;96006.72;;;5.60;60.00
78894;BME280;68282;42.698;23.350;2024-01-27T09:09:05;95985.91;;;5.76;59.14
78894;BME280;68282;42.698;23.350;2024-01-27T09:11:31;95990.75;;;5.44;59.97
78894;BME280;68282;42.698;23.350;2024-01-27T09:13:57;96020.25;;;5.45;59.19
78894;BME280;68282;42.698;23.350;2024-01-27T09:16:23;95998.53;;;5.53;59.42
78894;BME280;68282;42.698;23.350;2024-01-27T09:18:49;96003.00;;;5.61;59.01
78894;BME280;68282;42.698;23.350;2024-01-27T09:21:23;96007.88;;;5.51;59.13
78894;BME280;68282;42.698;23.350;2024-01-27T09:23:56;96039.19;;;5.52;58.94
78894;BME280;68282;42.698;23.350;2024-01-27T09:26:22;96008.56;;;5.60;59.45
78894;BME280;68282;42.698;23.350;2024-01-27T09:28:49;96001.03;;;5.55;59.38
78894;BME280;68282;42.698;23.350;2024-01-27T09:31:24;96012.25;;;5.73;59.72
78894;BME280;68282;42.698;23.350;2024-01-27T09:33:52;96030.59;;;5.63;59.47
78894;BME280;68282;42.698;23.350;2024-01-27T09:36:22;96030.44;;;5.65;58.75
78894;BME280;68282;42.698;23.350;2024-01-27T09:38:47;96015.88;;;5.81;58.84
78894;BME280;68282;42.698;23.350;2024-01-27T09:41:14;96035.47;;;5.90;58.92
78894;BME280;68282;42.698;23.350;2024-01-27T09:43:44;96013.69;;;5.91;57.97
78894;BME280;68282;42.698;23.350;2024-01-27T09:46:19;96040.53;;;5.78;58.33
78894;BME280;68282;42.698;23.350;2024-01-27T09:48:45;96051.38;;;5.63;58.90
78894;BME280;68282;42.698;23.350;2024-01-27T09:51:11;96045.78;;;5.64;59.23
78894;BME280;68282;42.698;23.350;2024-01-27T09:53:36;96040.13;;;5.59;59.35
78894;BME280;68282;42.698;23.350;2024-01-27T09:56:03;96048.38;;;5.57;58.68
78894;BME280;68282;42.698;23.350;2024-01-27T09:58:30;96037.38;;;5.74;58.26
78894;BME280;68282;42.698;23.350;2024-01-27T10:00:56;96034.88;;;5.72;58.14
78894;BME280;68282;42.698;23.350;2024-01-27T10:03:26;96057.09;;;5.75;58.43
78894;BME280;68282;42.698;23.350;2024-01-27T10:05:53;96043.69;;;5.30;58.81
78894;BME280;68282;42.698;23.350;2024-01-27T10:08:21;96049.38;;;5.20;58.82
78894;BME280;68282;42.698;23.350;2024-01-27T10:10:49;96049.66;;;5.10;59.04
78894;BME280;68282;42.698;23.350;2024-01-27T10:13:19;96055.16;;;5.17;59.42
78894;BME280;68282;42.698;23.350;2024-01-27T10:16:02;96079.03;;;5.05;59.92
78894;BME280;68282;42.698;23.350;2024-01-27T10:18:29;96070.56;;;5.23;59.88
78894;BME280;68282;42.698;23.350;2024-01-27T10:20:54;96062.84;;;4.90;59.91
78894;BME280;68282;42.698;23.350;2024-01-27T10:23:20;96067.41;;;4.89;59.90
78894;BME280;68282;42.698;23.350;2024-01-27T10:25:45;96079.13;;;4.97;60.24
78894;BME280;68282;42.698;23.350;2024-01-27T10:28:11;96071.31;;;5.02;60.00
78894;BME280;68282;42.698;23.350;2024-01-27T10:30:37;96070.78;;;5.21;59.74
78894;BME280;68282;42.698;23.350;2024-01-27T10:33:02;96074.84;;;5.02;60.11
78894;BME280;68282;42.698;23.350;2024-01-27T10:35:29;96082.69;;;5.12;59.77
78894;BME280;68282;42.698;23.350;2024-01-27T10:37:55;96093.06;;;5.15;59.68
78894;BME280;68282;42.698;23.350;2024-01-27T10:40:21;96096.53;;;5.09;60.55
78894;BME280;68282;42.698;23.350;2024-01-27T10:45:23;96099.56;;;4.91;60.23
78894;BME280;68282;42.698;23.350;2024-01-27T10:47:49;96105.16;;;4.89;60.98
78894;BME280;68282;42.698;23.350;2024-01-27T10:50:16;96095.28;;;4.82;61.36
78894;BME280;68282;42.698;23.350;2024-01-27T10:52:42;96085.63;;;4.87;60.72
78894;BME280;68282;42.698;23.350;2024-01-27T10:55:11;96092.88;;;5.02;60.30
78894;BME280;68282;42.698;23.350;2024-01-27T10:57:37;96107.78;;;5.13;60.38
78894;BME280;68282;42.698;23.350;2024-01-27T11:00:06;96107.00;;;5.04;60.17
78894;BME280;68282;42.698;23.350;2024-01-27T11:02:34;96116.63;;;5.06;60.83
78894;BME280;68282;42.698;23.350;2024-01-27T11:05:02;96126.63;;;4.98;60.66
78894;BME280;68282;42.698;23.350;2024-01-27T11:07:31;96144.50;;;4.75;61.53
78894;BME280;68282;42.698;23.350;2024-01-27T11:09:57;96125.19;;;4.72;61.85
78894;BME280;68282;42.698;23.350;2024-01-27T11:12:23;96120.34;;;4.67;62.13
78894;BME280;68282;42.698;23.350;2024-01-27T11:14:49;96115.31;;;4.64;62.36
78894;BME280;68282;42.698;23.350;2024-01-27T11:17:19;96115.38;;;4.56;62.74
78894;BME280;68282;42.698;23.350;2024-01-27T11:19:45;96117.09;;;4.33;63.51
78894;BME280;68282;42.698;23.350;2024-01-27T11:22:25;96119.16;;;4.46;63.68
78894;BME280;68282;42.698;23.350;2024-01-27T11:25:14;96124.25;;;4.64;63.58
78894;BME280;68282;42.698;23.350;2024-01-27T11:27:42;96117.44;;;4.69;62.89
78894;BME280;68282;42.698;23.350;2024-01-27T11:30:28;96137.16;;;4.69;62.74
78894;BME280;68282;42.698;23.350;2024-01-27T11:32:57;96138.09;;;4.76;62.87
78894;BME280;68282;42.698;23.350;2024-01-27T11:35:26;96120.81;;;4.71;62.63
78894;BME280;68282;42.698;23.350;2024-01-27T11:37:52;96140.44;;;4.79;62.45
78894;BME280;68282;42.698;23.350;2024-01-27T11:40:17;96145.72;;;4.73;62.67
78894;BME280;68282;42.698;23.350;2024-01-27T11:42:43;96146.00;;;4.63;62.68
78894;BME280;68282;42.698;23.350;2024-01-27T11:45:09;96124.44;;;4.63;62.89
78894;BME280;68282;42.698;23.350;2024-01-27T11:47:35;96116.94;;;4.50;62.73
78894;BME280;68282;42.698;23.350;2024-01-27T11:50:01;96148.44;;;4.49;62.32
78894;BME280;68282;42.698;23.350;2024-01-27T11:52:28;96159.19;;;4.73;61.63
78894;BME280;68282;42.698;23.350;2024-01-27T11:54:58;96135.78;;;4.73;61.14
78894;BME280;68282;42.698;23.350;2024-01-27T11:57:25;96144.94;;;4.64;61.14
78894;BME280;68282;42.698;23.350;2024-01-27T11:59:51;96165.06;;;4.76;61.37
78894;BME280;68282;42.698;23.350;2024-01-27T12:02:18;96136.69;;;4.66;61.30
78894;BME280;68282;42.698;23.350;2024-01-27T12:04:44;96145.91;;;4.71;60.69
78894;BME280;68282;42.698;23.350;2024-01-27T12:07:10;96160.53;;;4.77;60.32
78894;BME280;68282;42.698;23.350;2024-01-27T12:09:36;96167.59;;;4.78;60.38
78894;BME280;68282;42.698;23.350;2024-01-27T12:12:03;96174.34;;;4.74;60.18
78894;BME280;68282;42.698;23.350;2024-01-27T12:14:45;96163.63;;;4.66;60.31
78894;BME280;68282;42.698;23.350;2024-01-27T12:17:11;96181.47;;;4.90;59.57
78894;BME280;68282;42.698;23.350;2024-01-27T12:19:38;96169.72;;;4.83;59.64
78894;BME280;68282;42.698;23.350;2024-01-27T12:22:05;96161.09;;;4.87;59.11
78894;BME280;68282;42.698;23.350;2024-01-27T12:24:46;96169.31;;;4.94;59.12
78894;BME280;68282;42.698;23.350;2024-01-27T12:27:11;96157.78;;;5.00;58.81
78894;BME280;68282;42.698;23.350;2024-01-27T12:29:37;96162.16;;;5.16;58.49
78894;BME280;68282;42.698;23.350;2024-01-27T12:32:02;96178.09;;;5.26;57.72
78894;BME280;68282;42.698;23.350;2024-01-27T12:34:29;96150.66;;;5.22;58.00
78894;BME280;68282;42.698;23.350;2024-01-27T12:36:55;96161.72;;;5.42;57.08
78894;BME280;68282;42.698;23.350;2024-01-27T12:39:21;96146.94;;;5.53;56.89
78894;BME280;68282;42.698;23.350;2024-01-27T12:41:46;96143.41;;;5.38;57.89
78894;BME280;68282;42.698;23.350;2024-01-27T12:44:12;96142.69;;;5.29;57.48
78894;BME280;68282;42.698;23.350;2024-01-27T12:46:39;96153.38;;;5.37;57.17
78894;BME280;68282;42.698;23.350;2024-01-27T12:49:04;96139.31;;;5.27;57.59
78894;BME280;68282;42.698;23.350;2024-01-27T12:51:30;96151.22;;;5.18;57.93
78894;BME280;68282;42.698;23.350;2024-01-27T12:53:56;96153.47;;;5.29;57.85
78894;BME280;68282;42.698;23.350;2024-01-27T12:56:21;96153.47;;;5.29;57.13
78894;BME280;68282;42.698;23.350;2024-01-27T12:58:47;96131.94;;;5.06;57.61